sensor_id;sensor_type;location;lat;lon;timestamp;P1;durP1;ratioP1;P2;durP2;ratioP2
62535;SDS011;63050;47.514;18.920;2023-01-04T06:40:25;6.40;;;2.70;;
62535;SDS011;63050;47.514;18.920;2023-01-04T06:45:26;6.40;;;3.50;;
62535;SDS011;63050;47.514;18.920;2023-01-04T06:50:27;5.80;;;3.60;;
62535;SDS011;63050;47.514;18.920;2023-01-04T06:55:29;5.90;;;3.50;;
62535;SDS011;63050;47.514;18.920;2023-01-04T07:00:30;4.70;;;3.30;;
62535;SDS011;63050;47.514;18.920;2023-01-04T07:05:31;9.80;;;5.10;;
62535;SDS011;63050;47.514;18.920;2023-01-04T07:10:32;8.70;;;5.80;;
62535;SDS011;63050;47.514;18.920;2023-01-04T07:15:33;8.30;;;4.80;;
62535;SDS011;63050;47.514;18.920;2023-01-04T07:20:36;15.50;;;8.40;;
62535;SDS011;63050;47.514;18.920;2023-01-04T07:25:37;13.00;;;6.60;;
62535;SDS011;63050;47.514;18.920;2023-01-04T07:30:38;15.20;;;7.40;;
62535;SDS011;63050;47.514;18.920;2023-01-04T07:35:39;13.10;;;7.50;;
62535;SDS011;63050;47.514;18.920;2023-01-04T07:40:41;13.80;;;8.80;;
62535;SDS011;63050;47.514;18.920;2023-01-04T07:45:42;18.60;;;9.30;;
62535;SDS011;63050;47.514;18.920;2023-01-04T07:50:44;21.40;;;10.80;;
62535;SDS011;63050;47.514;18.920;2023-01-04T07:55:45;17.50;;;9.30;;
62535;SDS011;63050;47.514;18.920;2023-01-04T08:00:46;21.30;;;11.20;;
62535;SDS011;63050;47.514;18.920;2023-01-04T08:05:47;20.50;;;10.80;;
62535;SDS011;63050;47.514;18.920;2023-01-04T08:10:49;16.20;;;9.80;;
62535;SDS011;63050;47.514;18.920;2023-01-04T08:15:53;17.80;;;10.00;;
62535;SDS011;63050;47.514;18.920;2023-01-04T08:21:04;23.10;;;12.60;;
62535;SDS011;63050;47.514;18.920;2023-01-04T08:26:08;15.00;;;9.50;;
62535;SDS011;63050;47.514;18.920;2023-01-04T08:31:13;19.00;;;11.40;;
62535;SDS011;63050;47.514;18.920;2023-01-04T08:41:19;17.20;;;10.70;;
62535;SDS011;63050;47.514;18.920;2023-01-04T08:46:20;17.50;;;10.60;;
62535;SDS011;63050;47.514;18.920;2023-01-04T08:51:21;15.40;;;9.70;;
62535;SDS011;63050;47.514;18.920;2023-01-04T08:56:22;16.10;;;10.60;;
62535;SDS011;63050;47.514;18.920;2023-01-04T09:01:24;15.30;;;9.10;;
62535;SDS011;63050;47.514;18.920;2023-01-04T09:06:25;16.50;;;9.30;;
62535;SDS011;63050;47.514;18.920;2023-01-04T09:11:26;16.00;;;10.70;;
62535;SDS011;63050;47.514;18.920;2023-01-04T09:16:27;12.50;;;8.80;;
62535;SDS011;63050;47.514;18.920;2023-01-04T09:21:29;14.50;;;8.10;;
62535;SDS011;63050;47.514;18.920;2023-01-04T09:26:30;11.40;;;8.10;;
62535;SDS011;63050;47.514;18.920;2023-01-04T09:31:31;11.70;;;7.20;;
62535;SDS011;63050;47.514;18.920;2023-01-04T09:36:32;9.80;;;7.00;;
62535;SDS011;63050;47.514;18.920;2023-01-04T09:41:34;3.40;;;2.00;;
62535;SDS011;63050;47.514;18.920;2023-01-04T09:56:56;10.30;;;6.00;;
62535;SDS011;63050;47.514;18.920;2023-01-04T10:02:03;8.90;;;6.50;;
62535;SDS011;63050;47.514;18.920;2023-01-04T10:12:27;12.40;;;7.80;;
62535;SDS011;63050;47.514;18.920;2023-01-04T10:18:03;9.80;;;7.00;;
62535;SDS011;63050;47.514;18.920;2023-01-04T10:39:09;12.90;;;8.40;;
62535;SDS011;63050;47.514;18.920;2023-01-04T10:44:20;10.40;;;7.90;;
62535;SDS011;63050;47.514;18.920;2023-01-04T10:49:43;8.40;;;6.40;;
62535;SDS011;63050;47.514;18.920;2023-01-04T10:54:54;5.60;;;4.40;;
62535;SDS011;63050;47.514;18.920;2023-01-04T11:00:04;6.00;;;4.50;;
62535;SDS011;63050;47.514;18.920;2023-01-04T11:05:10;6.20;;;5.10;;
62535;SDS011;63050;47.514;18.920;2023-01-04T11:10:20;6.40;;;4.50;;
62535;SDS011;63050;47.514;18.920;2023-01-04T11:15:26;6.30;;;4.60;;
62535;SDS011;63050;47.514;18.920;2023-01-04T11:20:29;4.10;;;2.40;;
62535;SDS011;63050;47.514;18.920;2023-01-04T11:25:32;3.80;;;2.90;;
62535;SDS011;63050;47.514;18.920;2023-01-04T11:30:46;3.60;;;2.30;;
62535;SDS011;63050;47.514;18.920;2023-01-04T11:35:52;4.20;;;3.10;;
62535;SDS011;63050;47.514;18.920;2023-01-04T11:40:57;5.30;;;2.90;;
62535;SDS011;63050;47.514;18.920;2023-01-04T11:46:00;4.20;;;2.40;;
62535;SDS011;63050;47.514;18.920;2023-01-04T11:51:03;3.30;;;2.00;;
62535;SDS011;63050;47.514;18.920;2023-01-04T12:01:20;3.00;;;1.50;;
62535;SDS011;63050;47.514;18.920;2023-01-04T12:11:39;1.60;;;1.00;;
62535;SDS011;63050;47.514;18.920;2023-01-04T12:21:50;2.10;;;1.60;;
62535;SDS011;63050;47.514;18.920;2023-01-04T12:26:53;2.40;;;1.30;;
62535;SDS011;63050;47.514;18.920;2023-01-04T12:37:02;3.70;;;2.40;;
62535;SDS011;63050;47.514;18.920;2023-01-04T12:42:08;4.10;;;2.10;;
62535;SDS011;63050;47.514;18.920;2023-01-04T12:57:47;3.30;;;1.90;;
62535;SDS011;63050;47.514;18.920;2023-01-04T13:08:15;2.60;;;1.60;;
62535;SDS011;63050;47.514;18.920;2023-01-04T13:13:30;2.50;;;1.40;;
62535;SDS011;63050;47.514;18.920;2023-01-04T13:23:39;2.90;;;1.80;;
62535;SDS011;63050;47.514;18.920;2023-01-04T13:28:47;4.60;;;2.50;;
62535;SDS011;63050;47.514;18.920;2023-01-04T13:33:48;3.60;;;2.50;;
62535;SDS011;63050;47.514;18.920;2023-01-04T13:38:50;3.50;;;2.20;;
62535;SDS011;63050;47.514;18.920;2023-01-04T13:49:10;6.60;;;4.90;;
62535;SDS011;63050;47.514;18.920;2023-01-04T13:54:18;9.60;;;5.60;;
62535;SDS011;63050;47.514;18.920;2023-01-04T13:59:21;8.30;;;5.90;;
62535;SDS011;63050;47.514;18.920;2023-01-04T14:04:24;9.00;;;6.40;;
62535;SDS011;63050;47.514;18.920;2023-01-04T14:09:28;9.60;;;7.00;;
62535;SDS011;63050;47.514;18.920;2023-01-04T14:24:50;11.00;;;8.40;;
62535;SDS011;63050;47.514;18.920;2023-01-04T14:29:53;10.60;;;8.90;;
62535;SDS011;63050;47.514;18.920;2023-01-04T14:34:54;12.50;;;9.80;;
62535;SDS011;63050;47.514;18.920;2023-01-04T14:39:55;17.70;;;12.30;;
62535;SDS011;63050;47.514;18.920;2023-01-04T14:44:56;13.60;;;9.80;;
62535;SDS011;63050;47.514;18.920;2023-01-04T14:49:57;13.30;;;9.50;;
62535;SDS011;63050;47.514;18.920;2023-01-04T14:54:59;15.80;;;10.70;;
62535;SDS011;63050;47.514;18.920;2023-01-04T15:00:02;18.30;;;11.90;;
62535;SDS011;63050;47.514;18.920;2023-01-04T15:05:03;15.80;;;12.00;;
62535;SDS011;63050;47.514;18.920;2023-01-04T15:10:06;16.50;;;12.80;;
62535;SDS011;63050;47.514;18.920;2023-01-04T15:15:15;15.30;;;12.50;;
62535;SDS011;63050;47.514;18.920;2023-01-04T15:20:16;18.10;;;12.80;;
62535;SDS011;63050;47.514;18.920;2023-01-04T15:25:18;12.00;;;9.50;;
62535;SDS011;63050;47.514;18.920;2023-01-04T15:30:19;13.00;;;10.70;;
62535;SDS011;63050;47.514;18.920;2023-01-04T15:35:20;12.20;;;9.80;;
62535;SDS011;63050;47.514;18.920;2023-01-04T15:40:21;11.10;;;9.00;;
62535;SDS011;63050;47.514;18.920;2023-01-04T15:45:22;8.90;;;7.20;;
62535;SDS011;63050;47.514;18.920;2023-01-04T15:50:24;9.80;;;7.90;;
62535;SDS011;63050;47.514;18.920;2023-01-04T15:55:25;9.90;;;6.80;;
62535;SDS011;63050;47.514;18.920;2023-01-04T16:00:26;9.10;;;7.00;;
62535;SDS011;63050;47.514;18.920;2023-01-04T16:05:27;9.90;;;7.00;;
62535;SDS011;63050;47.514;18.920;2023-01-04T16:10:28;10.60;;;8.10;;
62535;SDS011;63050;47.514;18.920;2023-01-04T16:15:29;11.30;;;8.00;;
62535;SDS011;63050;47.514;18.920;2023-01-04T16:20:31;10.60;;;7.70;;
62535;SDS011;63050;47.514;18.920;2023-01-04T16:25:32;8.50;;;7.20;;
62535;SDS011;63050;47.514;18.920;2023-01-04T16:30:34;12.00;;;7.90;;
62535;SDS011;63050;47.514;18.920;2023-01-04T16:35:35;9.90;;;7.80;;
62535;SDS011;63050;47.514;18.920;2023-01-04T16:40:36;11.50;;;9.10;;
62535;SDS011;63050;47.514;18.920;2023-01-04T16:45:38;9.80;;;8.50;;
62535;SDS011;63050;47.514;18.920;2023-01-04T16:50:40;11.60;;;9.50;;
62535;SDS011;63050;47.514;18.920;2023-01-04T16:55:41;11.10;;;9.30;;
62535;SDS011;63050;47.514;18.920;2023-01-04T17:00:43;11.20;;;9.20;;
62535;SDS011;63050;47.514;18.920;2023-01-04T17:05:44;11.30;;;8.90;;
62535;SDS011;63050;47.514;18.920;2023-01-04T17:10:45;11.30;;;9.30;;
62535;SDS011;63050;47.514;18.920;2023-01-04T17:15:46;11.20;;;9.30;;
62535;SDS011;63050;47.514;18.920;2023-01-04T17:20:54;10.70;;;8.90;;
62535;SDS011;63050;47.514;18.920;2023-01-04T17:26:07;13.30;;;10.10;;
62535;SDS011;63050;47.514;18.920;2023-01-04T17:31:12;14.00;;;9.80;;
62535;SDS011;63050;47.514;18.920;2023-01-04T17:36:20;15.60;;;10.60;;
62535;SDS011;63050;47.514;18.920;2023-01-04T17:41:22;15.10;;;11.50;;
62535;SDS011;63050;47.514;18.920;2023-01-04T17:46:24;14.40;;;11.00;;
62535;SDS011;63050;47.514;18.920;2023-01-04T17:51:27;16.60;;;11.20;;
62535;SDS011;63050;47.514;18.920;2023-01-04T17:56:30;15.40;;;10.50;;
62535;SDS011;63050;47.514;18.920;2023-01-04T18:01:33;12.90;;;8.90;;
62535;SDS011;63050;47.514;18.920;2023-01-04T18:06:35;13.70;;;10.20;;
62535;SDS011;63050;47.514;18.920;2023-01-04T18:11:39;14.10;;;11.00;;
62535;SDS011;63050;47.514;18.920;2023-01-04T18:16:42;14.70;;;10.90;;
62535;SDS011;63050;47.514;18.920;2023-01-04T18:21:56;17.00;;;12.30;;
62535;SDS011;63050;47.514;18.920;2023-01-04T18:26:59;17.50;;;12.70;;
62535;SDS011;63050;47.514;18.920;2023-01-04T18:32:01;15.90;;;11.30;;
62535;SDS011;63050;47.514;18.920;2023-01-04T18:37:04;17.30;;;12.90;;
62535;SDS011;63050;47.514;18.920;2023-01-04T18:42:22;15.70;;;12.10;;
62535;SDS011;63050;47.514;18.920;2023-01-04T18:47:25;17.70;;;12.80;;
62535;SDS011;63050;47.514;18.920;2023-01-04T18:52:28;19.10;;;13.50;;
62535;SDS011;63050;47.514;18.920;2023-01-04T18:57:33;19.00;;;13.40;;
62535;SDS011;63050;47.514;18.920;2023-01-04T19:02:36;18.30;;;13.60;;
62535;SDS011;63050;47.514;18.920;2023-01-04T19:07:38;19.10;;;13.50;;
62535;SDS011;63050;47.514;18.920;2023-01-04T19:12:40;21.40;;;15.30;;
62535;SDS011;63050;47.514;18.920;2023-01-04T19:17:46;18.80;;;14.50;;
62535;SDS011;63050;47.514;18.920;2023-01-04T19:22:47;21.00;;;15.80;;
62535;SDS011;63050;47.514;18.920;2023-01-04T19:27:49;19.40;;;14.70;;
62535;SDS011;63050;47.514;18.920;2023-01-04T19:32:52;18.70;;;13.80;;
62535;SDS011;63050;47.514;18.920;2023-01-04T19:37:54;17.30;;;13.10;;
62535;SDS011;63050;47.514;18.920;2023-01-04T19:42:57;20.40;;;15.00;;
62535;SDS011;63050;47.514;18.920;2023-01-04T19:47:59;19.90;;;15.30;;
62535;SDS011;63050;47.514;18.920;2023-01-04T19:53:05;22.50;;;16.00;;
62535;SDS011;63050;47.514;18.920;2023-01-04T19:58:08;18.00;;;13.20;;
62535;SDS011;63050;47.514;18.920;2023-01-04T20:03:12;16.00;;;11.70;;
62535;SDS011;63050;47.514;18.920;2023-01-04T20:08:17;15.40;;;11.30;;
62535;SDS011;63050;47.514;18.920;2023-01-04T20:13:18;16.80;;;12.30;;
62535;SDS011;63050;47.514;18.920;2023-01-04T20:18:21;16.70;;;13.20;;
62535;SDS011;63050;47.514;18.920;2023-01-04T20:23:27;20.70;;;17.20;;
62535;SDS011;63050;47.514;18.920;2023-01-04T20:28:31;18.70;;;14.00;;
62535;SDS011;63050;47.514;18.920;2023-01-04T20:33:33;23.50;;;18.00;;
62535;SDS011;63050;47.514;18.920;2023-01-04T20:38:36;23.30;;;18.70;;
62535;SDS011;63050;47.514;18.920;2023-01-04T20:43:39;15.50;;;12.60;;
62535;SDS011;63050;47.514;18.920;2023-01-04T20:48:41;22.10;;;15.80;;
62535;SDS011;63050;47.514;18.920;2023-01-04T20:53:50;22.60;;;17.40;;
62535;SDS011;63050;47.514;18.920;2023-01-04T20:58:52;22.00;;;16.80;;
62535;SDS011;63050;47.514;18.920;2023-01-04T21:03:55;24.30;;;17.30;;
62535;SDS011;63050;47.514;18.920;2023-01-04T21:08:56;28.90;;;21.80;;
62535;SDS011;63050;47.514;18.920;2023-01-04T21:13:58;26.20;;;19.50;;
62535;SDS011;63050;47.514;18.920;2023-01-04T21:19:01;25.50;;;20.90;;
62535;SDS011;63050;47.514;18.920;2023-01-04T21:24:03;29.50;;;21.80;;
62535;SDS011;63050;47.514;18.920;2023-01-04T21:29:05;26.40;;;19.40;;
62535;SDS011;63050;47.514;18.920;2023-01-04T21:34:06;25.30;;;19.80;;
62535;SDS011;63050;47.514;18.920;2023-01-04T21:39:08;22.70;;;16.80;;
62535;SDS011;63050;47.514;18.920;2023-01-04T21:44:09;23.80;;;18.00;;
62535;SDS011;63050;47.514;18.920;2023-01-04T21:49:11;20.70;;;16.40;;
62535;SDS011;63050;47.514;18.920;2023-01-04T21:54:12;23.10;;;17.30;;
62535;SDS011;63050;47.514;18.920;2023-01-04T21:59:13;18.50;;;14.60;;
62535;SDS011;63050;47.514;18.920;2023-01-04T22:04:14;18.60;;;14.50;;
62535;SDS011;63050;47.514;18.920;2023-01-04T22:09:15;20.10;;;15.90;;
62535;SDS011;63050;47.514;18.920;2023-01-04T22:14:16;20.80;;;16.30;;
62535;SDS011;63050;47.514;18.920;2023-01-04T22:19:18;18.60;;;15.70;;
62535;SDS011;63050;47.514;18.920;2023-01-04T22:24:19;17.60;;;14.50;;
62535;SDS011;63050;47.514;18.920;2023-01-04T22:29:20;16.80;;;14.00;;
62535;SDS011;63050;47.514;18.920;2023-01-04T22:34:21;18.10;;;13.80;;
62535;SDS011;63050;47.514;18.920;2023-01-04T22:39:24;16.40;;;13.30;;
62535;SDS011;63050;47.514;18.920;2023-01-04T22:44:25;17.60;;;13.60;;
62535;SDS011;63050;47.514;18.920;2023-01-04T22:49:26;16.70;;;13.30;;
62535;SDS011;63050;47.514;18.920;2023-01-04T22:54:28;17.90;;;13.40;;
62535;SDS011;63050;47.514;18.920;2023-01-04T22:59:32;17.20;;;12.80;;
62535;SDS011;63050;47.514;18.920;2023-01-04T23:04:33;15.40;;;12.10;;
62535;SDS011;63050;47.514;18.920;2023-01-04T23:09:34;14.60;;;11.70;;
62535;SDS011;63050;47.514;18.920;2023-01-04T23:14:35;17.70;;;12.40;;
62535;SDS011;63050;47.514;18.920;2023-01-04T23:19:36;17.50;;;12.70;;
62535;SDS011;63050;47.514;18.920;2023-01-04T23:24:37;14.80;;;12.20;;
62535;SDS011;63050;47.514;18.920;2023-01-04T23:29:39;14.90;;;12.20;;
62535;SDS011;63050;47.514;18.920;2023-01-04T23:34:40;15.40;;;12.20;;
62535;SDS011;63050;47.514;18.920;2023-01-04T23:39:41;15.90;;;12.10;;
62535;SDS011;63050;47.514;18.920;2023-01-04T23:44:42;13.70;;;10.80;;
62535;SDS011;63050;47.514;18.920;2023-01-04T23:49:43;15.60;;;11.70;;
62535;SDS011;63050;47.514;18.920;2023-01-04T23:54:46;15.60;;;12.60;;
62535;SDS011;63050;47.514;18.920;2023-01-04T23:59:47;16.40;;;12.80;;
